createdAt,value
2022-11-29T00:00:46.302Z,8.16
2022-11-29T00:01:46.331Z,8.09
2022-11-29T00:02:46.414Z,8.11
2022-11-29T00:03:46.324Z,8.13
2022-11-29T00:04:46.341Z,8.16
2022-11-29T00:05:46.312Z,8.16
2022-11-29T00:06:46.302Z,8.17
2022-11-29T00:07:46.308Z,8.16
2022-11-29T00:08:46.322Z,8.17
2022-11-29T00:09:46.313Z,8.08
2022-11-29T00:10:46.303Z,8.06
2022-11-29T00:11:46.379Z,7.98
2022-11-29T00:12:46.375Z,7.93
2022-11-29T00:13:46.374Z,7.91
2022-11-29T00:14:46.764Z,7.87
2022-11-29T00:15:46.425Z,7.93
2022-11-29T00:16:46.432Z,7.96
2022-11-29T00:17:46.428Z,7.93
2022-11-29T00:18:46.435Z,7.87
2022-11-29T00:19:46.437Z,7.80
2022-11-29T00:20:46.435Z,7.77
2022-11-29T00:21:46.427Z,7.83
2022-11-29T00:22:46.506Z,7.90
2022-11-29T00:23:46.489Z,7.93
2022-11-29T00:24:46.679Z,8.01
2022-11-29T00:25:46.546Z,8.03
2022-11-29T00:26:46.639Z,8.05
2022-11-29T00:27:46.635Z,8.08
2022-11-29T00:28:46.617Z,8.13
2022-11-29T00:29:46.617Z,8.16
2022-11-29T00:30:46.657Z,8.17
2022-11-29T00:31:46.688Z,8.18
2022-11-29T00:32:46.686Z,8.11
2022-11-29T00:33:46.679Z,8.05
2022-11-29T00:34:46.739Z,8.06
2022-11-29T00:35:46.710Z,8.08
2022-11-29T00:36:46.788Z,8.09
2022-11-29T00:37:46.779Z,8.06
2022-11-29T00:38:46.769Z,8.11
2022-11-29T00:39:46.838Z,8.08
2022-11-29T00:40:46.901Z,8.01
2022-11-29T00:41:46.910Z,7.90
2022-11-29T00:42:46.900Z,7.93
2022-11-29T00:43:46.900Z,7.99
2022-11-29T00:44:46.891Z,8.03
2022-11-29T00:45:46.919Z,8.06
2022-11-29T00:46:46.901Z,8.06
2022-11-29T00:47:46.913Z,8.06
2022-11-29T00:48:46.901Z,8.01
2022-11-29T00:49:46.900Z,7.91
2022-11-29T00:50:46.894Z,7.93
2022-11-29T00:51:46.899Z,7.95
2022-11-29T00:52:46.882Z,7.95
2022-11-29T00:53:46.897Z,7.91
2022-11-29T00:54:47.054Z,7.91
2022-11-29T00:55:46.875Z,7.98
2022-11-29T00:56:46.863Z,8.02
2022-11-29T00:57:46.934Z,8.05
2022-11-29T00:58:46.945Z,8.08
2022-11-29T00:59:46.936Z,8.11
2022-11-29T01:00:46.933Z,8.14
2022-11-29T01:01:46.978Z,8.14
2022-11-29T01:02:47.047Z,8.14
2022-11-29T01:03:47.045Z,8.16
2022-11-29T01:04:47.367Z,8.17
2022-11-29T01:05:47.046Z,8.20
2022-11-29T01:06:47.035Z,8.20
2022-11-29T01:07:47.145Z,8.20
2022-11-29T01:08:47.176Z,8.17
2022-11-29T01:09:47.176Z,8.20
2022-11-29T01:10:47.182Z,8.18
2022-11-29T01:11:47.166Z,8.18
2022-11-29T01:12:47.158Z,8.21
2022-11-29T01:13:47.149Z,8.20
2022-11-29T01:14:47.330Z,8.17
2022-11-29T01:15:47.169Z,8.09
2022-11-29T01:16:47.241Z,8.08
2022-11-29T01:17:47.178Z,8.11
2022-11-29T01:18:47.159Z,8.11
2022-11-29T01:19:50.843Z,8.14
2022-11-29T01:20:47.259Z,8.09
2022-11-29T01:21:47.271Z,8.08
2022-11-29T01:22:47.261Z,8.11
2022-11-29T01:23:47.329Z,8.11
2022-11-29T01:24:47.320Z,8.13
2022-11-29T01:25:47.319Z,8.16
2022-11-29T01:26:47.320Z,8.17
2022-11-29T01:27:47.320Z,8.20
2022-11-29T01:28:47.320Z,8.20
2022-11-29T01:29:47.311Z,8.21
2022-11-29T01:30:47.342Z,8.17
2022-11-29T01:31:47.360Z,8.14
2022-11-29T01:32:47.361Z,8.16
2022-11-29T01:33:47.362Z,8.11
2022-11-29T01:34:47.413Z,8.13
2022-11-29T01:35:47.397Z,8.16
2022-11-29T01:36:47.476Z,8.16
2022-11-29T01:37:47.491Z,8.14
2022-11-29T01:38:47.484Z,8.08
2022-11-29T01:39:47.473Z,8.02
2022-11-29T01:40:47.544Z,8.06
2022-11-29T01:41:47.534Z,7.98
2022-11-29T01:42:47.614Z,8.01
2022-11-29T01:43:47.624Z,8.08
2022-11-29T01:44:47.618Z,8.13
2022-11-29T01:45:47.651Z,8.17
2022-11-29T01:46:47.637Z,8.20
2022-11-29T01:47:47.625Z,8.23
2022-11-29T01:48:47.634Z,8.24
2022-11-29T01:49:47.635Z,8.23
2022-11-29T01:50:47.625Z,8.27
2022-11-29T01:51:47.696Z,8.26
2022-11-29T01:52:47.685Z,8.18
2022-11-29T01:53:47.699Z,8.13
2022-11-29T01:54:47.855Z,8.05
2022-11-29T01:55:47.752Z,8.02
2022-11-29T01:56:47.719Z,8.05
2022-11-29T01:57:47.707Z,8.05
2022-11-29T01:58:47.691Z,7.98
2022-11-29T01:59:47.767Z,7.96
2022-11-29T02:00:47.781Z,8.02
2022-11-29T02:01:47.767Z,7.98
2022-11-29T02:02:47.794Z,8.01
2022-11-29T02:03:47.778Z,8.05
2022-11-29T02:04:47.967Z,8.11
2022-11-29T02:05:47.818Z,8.16
2022-11-29T02:06:47.811Z,8.20
2022-11-29T02:07:47.885Z,8.23
2022-11-29T02:08:47.809Z,8.23
2022-11-29T02:09:47.800Z,8.23
2022-11-29T02:10:47.805Z,8.21
2022-11-29T02:11:47.821Z,8.23
2022-11-29T02:12:47.815Z,8.24
2022-11-29T02:13:47.810Z,8.26
2022-11-29T02:14:47.952Z,8.28
2022-11-29T02:15:47.874Z,8.28
2022-11-29T02:16:51.061Z,8.28
2022-11-29T02:17:47.881Z,8.28
2022-11-29T02:18:47.872Z,8.27
2022-11-29T02:19:47.869Z,8.20
2022-11-29T02:20:47.851Z,8.17
2022-11-29T02:21:47.851Z,8.16
2022-11-29T02:22:47.852Z,8.08
2022-11-29T02:23:47.842Z,8.11
2022-11-29T02:24:47.958Z,8.09
2022-11-29T02:25:47.815Z,8.08
2022-11-29T02:26:47.883Z,8.13
2022-11-29T02:27:47.963Z,8.13
2022-11-29T02:28:47.913Z,8.14
2022-11-29T02:29:47.904Z,8.08
2022-11-29T02:30:47.993Z,8.11
2022-11-29T02:31:47.983Z,8.14
2022-11-29T02:32:47.985Z,8.13
2022-11-29T02:33:47.995Z,8.17
2022-11-29T02:34:48.000Z,8.20
2022-11-29T02:35:48.010Z,8.21
2022-11-29T02:36:47.995Z,8.18
2022-11-29T02:37:47.995Z,8.23
2022-11-29T02:38:47.987Z,8.23
2022-11-29T02:39:47.989Z,8.21
2022-11-29T02:40:47.986Z,8.16
2022-11-29T02:41:47.986Z,8.16
2022-11-29T02:42:54.098Z,8.09
2022-11-29T02:43:47.976Z,8.05
2022-11-29T02:44:47.959Z,8.09
2022-11-29T02:45:48.071Z,8.14
2022-11-29T02:46:48.028Z,8.14
2022-11-29T02:47:48.018Z,8.16
2022-11-29T02:48:48.008Z,8.16
2022-11-29T02:49:47.998Z,8.13
2022-11-29T02:50:48.088Z,8.17
2022-11-29T02:51:48.109Z,8.17
2022-11-29T02:52:48.101Z,8.23
2022-11-29T02:53:48.089Z,8.21
2022-11-29T02:54:48.225Z,8.11
2022-11-29T02:55:48.133Z,7.99
2022-11-29T02:56:48.139Z,7.99
2022-11-29T02:57:48.140Z,7.96
2022-11-29T02:58:48.130Z,7.98
2022-11-29T02:59:48.115Z,7.99
2022-11-29T03:00:48.190Z,7.96
2022-11-29T03:01:48.214Z,7.93
2022-11-29T03:02:48.278Z,7.95
2022-11-29T03:03:48.281Z,7.99
2022-11-29T03:04:48.283Z,8.09
2022-11-29T03:05:48.262Z,8.13
2022-11-29T03:06:48.256Z,8.17
2022-11-29T03:07:48.326Z,8.23
2022-11-29T03:08:48.255Z,8.24
2022-11-29T03:09:48.242Z,8.27
2022-11-29T03:10:48.233Z,8.26
2022-11-29T03:11:48.223Z,8.27
2022-11-29T03:12:48.312Z,8.28
2022-11-29T03:13:48.303Z,8.31
2022-11-29T03:14:48.375Z,8.31
2022-11-29T03:15:48.429Z,8.31
2022-11-29T03:16:48.362Z,8.31
2022-11-29T03:17:48.445Z,8.31
2022-11-29T03:18:48.447Z,8.31
2022-11-29T03:19:48.435Z,8.31
2022-11-29T03:20:48.425Z,8.31
2022-11-29T03:21:48.415Z,8.31
2022-11-29T03:22:48.415Z,8.27
2022-11-29T03:23:48.426Z,8.26
2022-11-29T03:24:48.432Z,8.24
2022-11-29T03:25:48.436Z,8.26
2022-11-29T03:26:48.437Z,8.26
2022-11-29T03:27:48.436Z,8.21
2022-11-29T03:28:48.458Z,8.23
2022-11-29T03:29:48.447Z,8.21
2022-11-29T03:30:48.486Z,8.24
2022-11-29T03:31:48.468Z,8.26
2022-11-29T03:32:48.456Z,8.26
2022-11-29T03:33:48.457Z,8.27
2022-11-29T03:34:51.741Z,8.28
2022-11-29T03:35:48.470Z,8.31
2022-11-29T03:36:48.461Z,8.28
2022-11-29T03:37:48.480Z,8.27
2022-11-29T03:38:48.469Z,8.18
2022-11-29T03:39:48.493Z,8.17
2022-11-29T03:40:48.497Z,8.21
2022-11-29T03:41:48.489Z,8.23
2022-11-29T03:42:48.490Z,8.24
2022-11-29T03:43:48.488Z,8.20
2022-11-29T03:44:48.478Z,8.14
2022-11-29T03:45:48.568Z,8.05
2022-11-29T03:46:48.560Z,8.01
2022-11-29T03:47:48.574Z,8.06
2022-11-29T03:48:48.561Z,8.09
2022-11-29T03:49:48.552Z,8.06
2022-11-29T03:50:48.541Z,8.06
2022-11-29T03:51:48.529Z,8.02
2022-11-29T03:52:48.622Z,8.05
2022-11-29T03:53:48.613Z,8.08
2022-11-29T03:54:48.684Z,8.05
2022-11-29T03:55:48.665Z,8.05
2022-11-29T03:56:48.744Z,8.08
2022-11-29T03:57:48.744Z,8.09
2022-11-29T03:58:48.733Z,8.05
2022-11-29T03:59:48.757Z,8.05
2022-11-29T04:00:48.749Z,8.05
2022-11-29T04:01:48.848Z,8.06
2022-11-29T04:02:48.863Z,8.03
2022-11-29T04:03:48.845Z,8.08
2022-11-29T04:04:48.847Z,7.95
2022-11-29T04:05:48.834Z,7.91
2022-11-29T04:06:48.857Z,7.90
2022-11-29T04:07:48.881Z,7.93
2022-11-29T04:08:48.975Z,8.02
2022-11-29T04:09:48.915Z,8.06
2022-11-29T04:10:48.926Z,8.06
2022-11-29T04:11:48.897Z,7.96
2022-11-29T04:12:48.887Z,8.08
2022-11-29T04:13:48.877Z,8.01
2022-11-29T04:14:48.867Z,8.06
2022-11-29T04:15:48.865Z,8.14
2022-11-29T04:16:48.940Z,8.18
2022-11-29T04:17:48.926Z,8.24
2022-11-29T04:18:48.918Z,8.24
2022-11-29T04:19:48.910Z,8.14
2022-11-29T04:20:48.898Z,8.21
2022-11-29T04:21:48.988Z,8.23
2022-11-29T04:22:48.978Z,8.21
2022-11-29T04:23:48.979Z,8.23
2022-11-29T04:24:48.971Z,8.26
2022-11-29T04:25:48.958Z,8.23
2022-11-29T04:26:48.959Z,8.20
2022-11-29T04:27:48.960Z,8.23
2022-11-29T04:28:48.950Z,8.27
2022-11-29T04:29:48.977Z,8.16
2022-11-29T04:30:49.030Z,8.18
2022-11-29T04:31:48.972Z,8.21
2022-11-29T04:32:48.983Z,8.20
2022-11-29T04:33:48.972Z,8.20
2022-11-29T04:34:49.050Z,8.20
2022-11-29T04:35:49.052Z,8.24
2022-11-29T04:36:49.040Z,8.23
2022-11-29T04:37:49.043Z,8.24
2022-11-29T04:38:49.047Z,8.09
2022-11-29T04:39:49.050Z,8.13
2022-11-29T04:40:49.037Z,8.18
2022-11-29T04:41:49.116Z,8.23
2022-11-29T04:42:49.105Z,8.18
2022-11-29T04:43:49.094Z,8.23
2022-11-29T04:44:49.093Z,8.20
2022-11-29T04:45:49.085Z,8.21
2022-11-29T04:46:49.110Z,8.21
2022-11-29T04:47:49.105Z,8.24
2022-11-29T04:48:49.096Z,8.18
2022-11-29T04:49:49.084Z,8.20
2022-11-29T04:50:49.072Z,8.20
2022-11-29T04:51:49.095Z,8.21
2022-11-29T04:52:49.115Z,8.21
2022-11-29T04:53:49.109Z,8.24
2022-11-29T04:54:49.095Z,8.27
2022-11-29T04:55:49.103Z,8.28
2022-11-29T04:56:49.088Z,8.28
2022-11-29T04:57:49.095Z,8.32
2022-11-29T04:58:49.086Z,8.32
2022-11-29T04:59:49.087Z,8.32
2022-11-29T05:00:49.077Z,8.32
2022-11-29T05:01:49.117Z,8.32
2022-11-29T05:02:49.158Z,8.31
2022-11-29T05:03:53.843Z,8.32
2022-11-29T05:04:49.149Z,8.31
2022-11-29T05:05:49.145Z,8.26
2022-11-29T05:06:49.130Z,8.17
2022-11-29T05:07:49.207Z,8.14
2022-11-29T05:08:49.210Z,8.17
2022-11-29T05:09:49.321Z,8.20
2022-11-29T05:10:49.218Z,8.23
2022-11-29T05:11:49.219Z,8.26
2022-11-29T05:12:49.208Z,8.26
2022-11-29T05:13:49.198Z,8.28
2022-11-29T05:14:49.209Z,8.32
2022-11-29T05:15:49.247Z,8.32
2022-11-29T05:16:49.250Z,8.31
2022-11-29T05:17:49.241Z,8.28
2022-11-29T05:18:49.312Z,8.27
2022-11-29T05:19:49.330Z,8.28
2022-11-29T05:20:49.330Z,8.31
2022-11-29T05:21:49.329Z,8.32
2022-11-29T05:22:49.326Z,8.32
2022-11-29T05:23:49.315Z,8.32
2022-11-29T05:24:49.326Z,8.28
2022-11-29T05:25:49.313Z,8.20
2022-11-29T05:26:49.313Z,8.17
2022-11-29T05:27:49.302Z,8.16
2022-11-29T05:28:49.319Z,8.14
2022-11-29T05:29:49.363Z,8.16
2022-11-29T05:30:49.500Z,8.16
2022-11-29T05:31:49.412Z,8.13
2022-11-29T05:32:49.413Z,8.18
2022-11-29T05:33:49.408Z,8.17
2022-11-29T05:34:49.758Z,8.21
2022-11-29T05:35:49.464Z,8.24
2022-11-29T05:36:49.464Z,8.24
2022-11-29T05:37:49.454Z,8.24
2022-11-29T05:38:49.460Z,8.26
2022-11-29T05:39:49.464Z,8.28
2022-11-29T05:40:49.475Z,8.31
2022-11-29T05:41:49.465Z,8.32
2022-11-29T05:42:49.457Z,8.32
2022-11-29T05:43:49.469Z,8.34
2022-11-29T05:44:49.456Z,8.36
2022-11-29T05:45:49.506Z,8.34
2022-11-29T05:46:49.510Z,8.24
2022-11-29T05:47:49.490Z,8.17
2022-11-29T05:48:49.479Z,8.23
2022-11-29T05:49:49.468Z,8.23
2022-11-29T05:50:49.466Z,8.24
2022-11-29T05:51:49.468Z,8.26
2022-11-29T05:52:49.469Z,8.27
2022-11-29T05:53:49.459Z,8.28
2022-11-29T05:54:49.450Z,8.28
2022-11-29T05:55:49.438Z,8.28
2022-11-29T05:56:49.529Z,8.27
2022-11-29T05:57:49.518Z,8.24
2022-11-29T05:58:49.511Z,8.17
2022-11-29T05:59:49.500Z,8.17
2022-11-29T06:00:49.499Z,8.16
2022-11-29T06:01:49.574Z,8.16
2022-11-29T06:02:49.585Z,8.17
2022-11-29T06:03:49.489Z,8.20
2022-11-29T06:04:49.481Z,8.17
2022-11-29T06:05:49.471Z,8.18
2022-11-29T06:06:49.464Z,8.21
2022-11-29T06:07:49.481Z,8.23
2022-11-29T06:08:49.472Z,8.26
2022-11-29T06:09:50.405Z,8.23
2022-11-29T06:10:49.552Z,8.23
2022-11-29T06:11:49.562Z,8.20
2022-11-29T06:12:49.552Z,8.18
2022-11-29T06:13:49.545Z,8.18
2022-11-29T06:14:49.535Z,8.21
2022-11-29T06:15:49.567Z,8.18
2022-11-29T06:16:49.573Z,8.09
2022-11-29T06:17:49.563Z,8.11
2022-11-29T06:18:49.564Z,8.14
2022-11-29T06:19:49.574Z,8.16
2022-11-29T06:20:49.585Z,8.17
2022-11-29T06:21:49.588Z,8.14
2022-11-29T06:22:49.585Z,8.17
2022-11-29T06:23:49.585Z,8.20
2022-11-29T06:24:49.575Z,8.23
2022-11-29T06:25:49.583Z,8.21
2022-11-29T06:26:49.582Z,8.16
2022-11-29T06:27:49.566Z,8.17
2022-11-29T06:28:49.880Z,8.18
2022-11-29T06:29:49.597Z,8.14
2022-11-29T06:30:49.606Z,8.16
2022-11-29T06:31:49.611Z,8.14
2022-11-29T06:32:49.597Z,8.08
2022-11-29T06:33:49.586Z,8.02
2022-11-29T06:34:49.576Z,8.01
2022-11-29T06:35:49.588Z,7.99
2022-11-29T06:36:49.579Z,8.03
2022-11-29T06:37:49.577Z,7.98
2022-11-29T06:38:49.569Z,7.96
2022-11-29T06:39:49.584Z,8.03
2022-11-29T06:40:49.578Z,8.08
2022-11-29T06:41:49.579Z,8.02
2022-11-29T06:42:49.569Z,8.08
2022-11-29T06:43:49.648Z,8.03
2022-11-29T06:44:49.641Z,8.05
2022-11-29T06:45:49.629Z,7.95
2022-11-29T06:46:49.756Z,7.90
2022-11-29T06:47:49.687Z,7.95
2022-11-29T06:48:49.691Z,8.01
2022-11-29T06:49:49.694Z,8.02
2022-11-29T06:50:49.720Z,8.05
2022-11-29T06:51:49.751Z,8.11
2022-11-29T06:52:49.790Z,8.05
2022-11-29T06:53:49.771Z,7.99
2022-11-29T06:54:49.801Z,7.93
2022-11-29T06:55:49.821Z,7.98
2022-11-29T06:56:49.872Z,7.95
2022-11-29T06:57:49.914Z,8.03
2022-11-29T06:58:49.936Z,8.06
2022-11-29T06:59:49.951Z,8.17
2022-11-29T07:00:50.019Z,8.21
2022-11-29T07:01:50.006Z,8.26
2022-11-29T07:02:50.034Z,8.28
2022-11-29T07:03:50.053Z,8.23
2022-11-29T07:04:50.236Z,8.24
2022-11-29T07:05:50.093Z,8.18
2022-11-29T07:06:50.124Z,8.18
2022-11-29T07:07:50.160Z,8.11
2022-11-29T07:08:50.184Z,8.13
2022-11-29T07:09:50.205Z,8.18
2022-11-29T07:10:50.242Z,8.24
2022-11-29T07:11:50.271Z,8.23
2022-11-29T07:12:50.277Z,8.26
2022-11-29T07:13:50.306Z,8.27
2022-11-29T07:14:50.336Z,8.28
2022-11-29T07:15:50.374Z,8.32
2022-11-29T07:16:55.856Z,8.34
2022-11-29T07:17:50.389Z,8.31
2022-11-29T07:18:50.406Z,8.34
2022-11-29T07:19:50.447Z,8.35
2022-11-29T07:20:50.467Z,8.36
2022-11-29T07:21:50.497Z,8.36
2022-11-29T07:22:50.509Z,8.28
2022-11-29T07:23:50.576Z,8.27
2022-11-29T07:24:50.629Z,8.23
2022-11-29T07:25:50.657Z,8.27
2022-11-29T07:26:52.921Z,8.32
2022-11-29T07:27:50.719Z,8.26
2022-11-29T07:28:50.730Z,8.27
2022-11-29T07:29:50.731Z,8.26
2022-11-29T07:30:50.750Z,8.28
2022-11-29T07:31:50.828Z,8.31
2022-11-29T07:32:52.874Z,8.34
2022-11-29T07:33:50.833Z,8.35
2022-11-29T07:34:50.844Z,8.31
2022-11-29T07:35:50.851Z,8.32
2022-11-29T07:36:50.873Z,8.27
2022-11-29T07:37:50.874Z,8.28
2022-11-29T07:38:50.922Z,8.31
2022-11-29T07:39:50.943Z,8.32
2022-11-29T07:40:50.962Z,8.34
2022-11-29T07:41:50.992Z,8.35
2022-11-29T07:42:50.992Z,8.32
2022-11-29T07:43:51.142Z,8.34
2022-11-29T07:44:51.110Z,8.38
2022-11-29T07:45:51.135Z,8.42
2022-11-29T07:46:51.212Z,8.42
2022-11-29T07:47:51.207Z,8.42
2022-11-29T07:48:51.244Z,8.41
2022-11-29T07:49:51.294Z,8.38
2022-11-29T07:50:51.333Z,8.39
2022-11-29T07:51:51.354Z,8.41
2022-11-29T07:52:51.393Z,8.44
2022-11-29T07:53:51.454Z,8.46
2022-11-29T07:54:51.535Z,8.46
2022-11-29T07:55:51.520Z,8.46
2022-11-29T07:56:51.585Z,8.49
2022-11-29T07:57:51.666Z,8.50
2022-11-29T07:58:51.722Z,8.53
2022-11-29T07:59:51.736Z,8.54
2022-11-29T08:00:51.764Z,8.57
2022-11-29T08:01:51.773Z,8.59
2022-11-29T08:02:51.777Z,8.61
2022-11-29T08:03:51.767Z,8.63
2022-11-29T08:04:51.829Z,8.64
2022-11-29T08:05:51.910Z,8.64
2022-11-29T08:06:51.887Z,8.68
2022-11-29T08:07:52.076Z,8.68
2022-11-29T08:08:52.018Z,8.71
2022-11-29T08:09:52.078Z,8.72
2022-11-29T08:10:52.168Z,8.72
2022-11-29T08:11:52.159Z,8.72
2022-11-29T08:12:52.171Z,8.72
2022-11-29T08:13:52.149Z,8.75
2022-11-29T08:14:52.211Z,8.77
2022-11-29T08:15:52.271Z,8.77
2022-11-29T08:16:52.358Z,8.78
2022-11-29T08:17:52.339Z,8.78
2022-11-29T08:18:52.718Z,8.79
2022-11-29T08:19:52.412Z,8.81
2022-11-29T08:20:52.429Z,8.79
2022-11-29T08:21:52.460Z,8.82
2022-11-29T08:22:52.482Z,8.82
2022-11-29T08:23:52.514Z,8.84
2022-11-29T08:24:52.525Z,8.79
2022-11-29T08:25:52.562Z,8.74
2022-11-29T08:26:52.584Z,8.77
2022-11-29T08:27:52.603Z,8.78
2022-11-29T08:28:52.643Z,8.79
2022-11-29T08:29:52.664Z,8.77
2022-11-29T08:30:52.683Z,8.75
2022-11-29T08:31:52.792Z,8.77
2022-11-29T08:32:52.762Z,8.79
2022-11-29T08:33:52.812Z,8.84
2022-11-29T08:34:52.864Z,8.86
2022-11-29T08:35:52.894Z,8.87
2022-11-29T08:36:52.925Z,8.90
2022-11-29T08:37:52.946Z,8.87
2022-11-29T08:39:01.255Z,8.87
2022-11-29T08:39:53.057Z,8.86
2022-11-29T08:40:53.076Z,8.87
2022-11-29T08:41:53.096Z,8.90
2022-11-29T08:42:53.125Z,8.92
2022-11-29T08:43:53.157Z,8.92
2022-11-29T08:44:53.226Z,8.95
2022-11-29T08:45:53.238Z,8.92
2022-11-29T08:46:53.247Z,8.90
2022-11-29T08:47:53.228Z,8.79
2022-11-29T08:48:53.298Z,8.75
2022-11-29T08:49:53.367Z,8.66
2022-11-29T08:50:53.347Z,8.63
2022-11-29T08:51:53.338Z,8.64
2022-11-29T08:52:53.345Z,8.71
2022-11-29T08:53:53.399Z,8.77
2022-11-29T08:54:53.531Z,8.77
2022-11-29T08:55:53.459Z,8.75
2022-11-29T08:57:37.445Z,8.78
2022-11-29T08:57:53.550Z,8.84
2022-11-29T08:58:53.570Z,8.87
2022-11-29T08:59:53.620Z,8.92
2022-11-29T09:00:53.745Z,8.96
2022-11-29T09:01:53.774Z,8.99
2022-11-29T09:02:53.781Z,9.05
2022-11-29T09:03:53.760Z,9.08
2022-11-29T09:04:53.821Z,9.09
2022-11-29T09:05:53.885Z,9.11
2022-11-29T09:06:53.952Z,9.11
2022-11-29T09:07:53.940Z,9.12
2022-11-29T09:08:53.941Z,9.13
2022-11-29T09:09:53.962Z,9.15
2022-11-29T09:10:53.984Z,9.16
2022-11-29T09:11:53.972Z,9.15
2022-11-29T09:12:54.044Z,9.15
2022-11-29T09:13:54.064Z,9.16
2022-11-29T09:14:54.084Z,9.16
2022-11-29T09:15:54.053Z,9.08
2022-11-29T09:16:54.206Z,9.03
2022-11-29T09:17:54.147Z,8.99
2022-11-29T09:18:54.155Z,9.02
2022-11-29T09:19:54.158Z,9.08
2022-11-29T09:20:54.146Z,9.08
2022-11-29T09:21:54.165Z,9.15
2022-11-29T09:22:54.175Z,9.22
2022-11-29T09:23:54.216Z,9.22
2022-11-29T09:24:54.247Z,9.24
2022-11-29T09:25:54.295Z,9.29
2022-11-29T09:26:54.342Z,9.29
2022-11-29T09:27:54.385Z,9.27
2022-11-29T09:28:54.419Z,9.27
2022-11-29T09:29:54.457Z,9.29
2022-11-29T09:30:54.507Z,9.30
2022-11-29T09:31:54.519Z,9.24
2022-11-29T09:32:54.537Z,9.21
2022-11-29T09:33:54.545Z,9.22
2022-11-29T09:34:54.588Z,9.22
2022-11-29T09:35:54.638Z,9.27
2022-11-29T09:36:54.698Z,9.31
2022-11-29T09:37:54.760Z,9.31
2022-11-29T09:38:54.800Z,9.31
2022-11-29T09:39:54.914Z,9.27
2022-11-29T09:40:54.919Z,9.22
2022-11-29T09:41:54.920Z,9.26
2022-11-29T09:42:54.920Z,9.27
2022-11-29T09:43:54.920Z,9.22
2022-11-29T09:44:54.934Z,9.21
2022-11-29T09:45:55.017Z,9.16
2022-11-29T09:46:58.861Z,9.22
2022-11-29T09:47:55.104Z,9.26
2022-11-29T09:48:55.058Z,9.21
2022-11-29T09:49:55.061Z,9.19
2022-11-29T09:50:55.072Z,9.19
2022-11-29T09:51:55.063Z,9.19
2022-11-29T09:52:55.040Z,9.22
2022-11-29T09:53:55.043Z,9.30
2022-11-29T09:54:55.108Z,9.33
2022-11-29T09:55:55.164Z,9.29
2022-11-29T09:56:55.183Z,9.26
2022-11-29T09:57:55.185Z,9.16
2022-11-29T09:58:55.193Z,9.24
2022-11-29T09:59:55.194Z,9.30
2022-11-29T10:00:55.248Z,9.30
2022-11-29T10:01:55.310Z,9.21
2022-11-29T10:02:55.304Z,9.21
2022-11-29T10:03:55.275Z,9.26
2022-11-29T10:04:55.297Z,9.18
2022-11-29T10:05:55.348Z,9.22
2022-11-29T10:06:55.424Z,9.30
2022-11-29T10:07:55.509Z,9.31
2022-11-29T10:08:55.444Z,9.29
2022-11-29T10:09:55.467Z,9.22
2022-11-29T10:10:55.466Z,9.12
2022-11-29T10:11:55.466Z,9.12
2022-11-29T10:12:55.469Z,9.22
2022-11-29T10:13:55.529Z,9.29
2022-11-29T10:14:56.897Z,9.36
2022-11-29T10:15:55.608Z,9.33
2022-11-29T10:16:55.690Z,9.29
2022-11-29T10:17:55.668Z,9.29
2022-11-29T10:18:55.668Z,9.24
2022-11-29T10:19:55.689Z,9.24
2022-11-29T10:20:55.679Z,9.27
2022-11-29T10:21:55.719Z,9.29
2022-11-29T10:22:55.768Z,9.36
2022-11-29T10:23:55.749Z,9.39
2022-11-29T10:24:55.769Z,9.44
2022-11-29T10:25:55.780Z,9.47
2022-11-29T10:26:55.838Z,9.51
2022-11-29T10:27:55.881Z,9.48
2022-11-29T10:28:55.931Z,9.37
2022-11-29T10:29:55.941Z,9.33
2022-11-29T10:30:55.996Z,9.42
2022-11-29T10:31:55.961Z,9.39
2022-11-29T10:32:55.955Z,9.34
2022-11-29T10:33:55.981Z,9.31
2022-11-29T10:34:56.064Z,9.33
2022-11-29T10:35:56.032Z,9.37
2022-11-29T10:36:56.052Z,9.45
2022-11-29T10:38:28.613Z,9.49
2022-11-29T10:38:56.073Z,9.42
2022-11-29T10:39:56.116Z,9.51
2022-11-29T10:40:56.137Z,9.52
2022-11-29T10:41:56.184Z,9.47
2022-11-29T10:42:56.224Z,9.37
2022-11-29T10:43:56.283Z,9.44
2022-11-29T10:44:56.255Z,9.45
2022-11-29T10:45:56.465Z,9.37
2022-11-29T10:46:56.256Z,9.47
2022-11-29T10:47:56.235Z,9.52
2022-11-29T10:48:56.304Z,9.48
2022-11-29T10:49:56.295Z,9.51
2022-11-29T10:50:56.351Z,9.54
2022-11-29T10:51:56.316Z,9.54
2022-11-29T10:53:00.049Z,9.54
2022-11-29T10:53:56.437Z,9.56
2022-11-29T10:54:56.417Z,9.62
2022-11-29T10:55:56.420Z,9.58
2022-11-29T10:56:56.475Z,9.54
2022-11-29T10:57:56.517Z,9.56
2022-11-29T10:58:56.578Z,9.58
2022-11-29T10:59:56.569Z,9.48
2022-11-29T11:00:56.598Z,9.39
2022-11-29T11:01:56.608Z,9.33
2022-11-29T11:02:56.579Z,9.33
2022-11-29T11:03:56.569Z,9.37
2022-11-29T11:04:56.650Z,9.33
2022-11-29T11:05:56.665Z,9.36
2022-11-29T11:06:56.651Z,9.45
2022-11-29T11:07:56.703Z,9.49
2022-11-29T11:08:56.680Z,9.56
2022-11-29T11:09:56.764Z,9.54
2022-11-29T11:11:01.669Z,9.49
2022-11-29T11:11:56.812Z,9.40
2022-11-29T11:12:56.801Z,9.48
2022-11-29T11:13:56.844Z,9.42
2022-11-29T11:14:56.892Z,9.45
2022-11-29T11:15:56.894Z,9.54
2022-11-29T11:16:57.089Z,9.59
2022-11-29T11:17:56.943Z,9.62
2022-11-29T11:18:56.985Z,9.67
2022-11-29T11:19:57.024Z,9.72
2022-11-29T11:20:57.063Z,9.73
2022-11-29T11:21:57.123Z,9.70
2022-11-29T11:22:57.124Z,9.62
2022-11-29T11:23:57.126Z,9.66
2022-11-29T11:24:57.143Z,9.70
2022-11-29T11:25:57.155Z,9.74
2022-11-29T11:26:57.203Z,9.81
2022-11-29T11:27:57.257Z,9.77
2022-11-29T11:28:57.305Z,9.80
2022-11-29T11:29:57.305Z,9.76
2022-11-29T11:30:57.397Z,9.81
2022-11-29T11:31:57.379Z,9.74
2022-11-29T11:32:57.464Z,9.74
2022-11-29T11:33:57.429Z,9.76
2022-11-29T11:34:57.497Z,9.77
2022-11-29T11:35:57.537Z,9.80
2022-11-29T11:36:57.597Z,9.80
2022-11-29T11:37:57.722Z,9.77
2022-11-29T11:38:57.703Z,9.84
2022-11-29T11:39:57.827Z,9.88
2022-11-29T11:40:58.201Z,9.90
2022-11-29T11:41:57.770Z,9.94
2022-11-29T11:42:57.780Z,9.92
2022-11-29T11:43:57.779Z,9.92
2022-11-29T11:44:57.791Z,9.91
2022-11-29T11:45:57.806Z,9.88
2022-11-29T11:46:57.810Z,9.87
2022-11-29T11:47:57.861Z,9.90
2022-11-29T11:48:57.919Z,9.90
2022-11-29T11:49:57.978Z,9.97
2022-11-29T11:50:57.965Z,10.00
2022-11-29T11:51:58.031Z,9.99
2022-11-29T11:52:58.036Z,9.90
2022-11-29T11:53:58.110Z,9.82
2022-11-29T11:54:58.122Z,9.85
2022-11-29T11:55:58.210Z,9.87
2022-11-29T11:56:58.274Z,9.84
2022-11-29T11:57:58.254Z,9.87
2022-11-29T11:58:58.253Z,9.91
2022-11-29T12:00:03.378Z,9.95
2022-11-29T12:01:06.220Z,10.00
2022-11-29T12:01:58.366Z,10.05
2022-11-29T12:02:58.516Z,10.00
2022-11-29T12:03:58.458Z,9.90
2022-11-29T12:04:59.135Z,9.91
2022-11-29T12:05:58.539Z,9.84
2022-11-29T12:06:58.508Z,9.84
2022-11-29T12:08:13.881Z,9.81
2022-11-29T12:08:58.604Z,9.84
2022-11-29T12:09:58.617Z,9.90
2022-11-29T12:11:02.688Z,9.99
2022-11-29T12:11:58.655Z,10.05
2022-11-29T12:12:58.697Z,10.06
2022-11-29T12:13:58.749Z,10.13
2022-11-29T12:14:58.775Z,10.13
2022-11-29T12:15:58.829Z,10.12
2022-11-29T12:16:58.878Z,9.97
2022-11-29T12:17:58.891Z,9.95
2022-11-29T12:18:58.917Z,10.00
2022-11-29T12:19:58.958Z,10.02
2022-11-29T12:20:58.999Z,10.05
2022-11-29T12:21:59.051Z,10.10
2022-11-29T12:22:59.090Z,10.06
2022-11-29T12:23:59.111Z,10.02
2022-11-29T12:24:59.141Z,10.03
2022-11-29T12:25:59.199Z,10.03
2022-11-29T12:26:59.544Z,10.12
2022-11-29T12:27:59.302Z,10.18
2022-11-29T12:28:59.308Z,10.25
2022-11-29T12:29:59.291Z,10.27
2022-11-29T12:30:59.359Z,10.33
2022-11-29T12:31:59.322Z,10.36
2022-11-29T12:32:59.352Z,10.34
2022-11-29T12:33:59.413Z,10.42
2022-11-29T12:34:59.433Z,10.45
2022-11-29T12:35:59.434Z,10.49
2022-11-29T12:36:59.473Z,10.49
2022-11-29T12:37:59.523Z,10.49
2022-11-29T12:38:59.567Z,10.49
2022-11-29T12:39:59.613Z,10.43
2022-11-29T12:40:59.638Z,10.41
2022-11-29T12:41:59.692Z,10.41
2022-11-29T12:42:59.686Z,10.34
2022-11-29T12:43:59.685Z,10.27
2022-11-29T12:44:59.697Z,10.24
2022-11-29T12:45:59.754Z,10.21
2022-11-29T12:47:28.171Z,10.18
2022-11-29T12:47:59.757Z,10.10
2022-11-29T12:48:59.785Z,10.17
2022-11-29T12:49:59.817Z,10.17
2022-11-29T12:50:59.816Z,10.17
2022-11-29T12:51:59.844Z,10.15
2022-11-29T12:52:59.869Z,10.15
2022-11-29T12:53:59.888Z,10.18
2022-11-29T12:54:59.973Z,10.21
2022-11-29T12:55:59.928Z,10.20
2022-11-29T12:56:59.957Z,10.20
2022-11-29T12:57:59.950Z,10.17
2022-11-29T12:58:59.962Z,10.23
2022-11-29T12:59:59.989Z,10.25
2022-11-29T13:01:00.052Z,10.30
2022-11-29T13:02:00.195Z,10.31
2022-11-29T13:03:00.153Z,10.33
2022-11-29T13:04:00.152Z,10.30
2022-11-29T13:05:00.402Z,10.31
2022-11-29T13:06:00.213Z,10.28
2022-11-29T13:07:00.225Z,10.28
2022-11-29T13:08:00.280Z,10.24
2022-11-29T13:09:00.241Z,10.23
2022-11-29T13:10:00.251Z,10.27
2022-11-29T13:11:00.322Z,10.31
2022-11-29T13:12:00.381Z,10.33
2022-11-29T13:13:00.436Z,10.34
2022-11-29T13:14:20.197Z,10.31
2022-11-29T13:15:00.760Z,10.31
2022-11-29T13:16:00.536Z,10.33
2022-11-29T13:17:00.535Z,10.34